Latest Weather Observations for Edithburgh

IDS60801

Issued at 9:01 pm CST Friday 1 July 2016 (issued every 30 minutes, with the page automatically refreshed every 10 minutes)

About weather observations | Map of weather stations | Latest weather observations for SA | Other Formats
Station Details ID: 022046 Name: EDITHBURGH Lat: -35.11 Lon: 137.74 Height: 6.0 m
Data from the previous 72 hours. | See also: Recent months at Edithburgh
Date/Time
CST
Temp
°C
App
Temp
°C
Dew
Point
°C
Rel
Hum
%
Delta-T
°C
Wind Press
QNH
hPa
Press
MSL
hPa
Rain since
9am
mm
Dir  Spd
km/h
Gust
km/h
Spd
kts
Gust
kts
01/09:00pm 10.9 9.7 10.3 96 0.3 WNW 7 9 4 5 1028.0 1028.0 0.4
01/08:30pm 11.0 9.0 10.2 95 0.4 NW 11 13 6 7 1027.8 1027.8 0.4
01/08:00pm 11.5 10.0 10.7 95 0.4 NW 9 11 5 6 1027.7 1027.7 0.4
01/07:30pm 11.4 9.9 10.6 95 0.4 WNW 9 13 5 7 1027.4 1027.4 0.2
01/07:00pm 11.0 9.3 10.0 93 0.5 WNW 9 11 5 6 1027.0 1027.0 0.0
01/06:30pm 11.5 9.9 10.3 92 0.6 NW 9 11 5 6 1026.6 1026.6 0.0
01/06:00pm 12.1 10.6 10.5 90 0.8 WNW 9 13 5 7 1026.4 1026.4 0.0
01/05:30pm 12.4 9.0 10.7 89 0.9 WNW 19 22 10 12 1026.1 1026.1 0.0
01/05:00pm 13.3 11.6 11.2 87 1.1 NW 11 13 6 7 1026.0 1026.0 0.0
01/04:30pm 13.6 11.5 11.3 86 1.2 NW 13 17 7 9 1025.8 1025.8 0.0
01/04:00pm 13.8 11.9 10.5 80 1.7 WNW 11 13 6 7 1025.6 1025.6 0.0
01/03:30pm 13.3 11.5 11.0 86 1.2 W 11 20 6 11 1025.5 1025.5 0.0
01/03:00pm 13.6 10.2 10.7 82 1.5 WNW 19 26 10 14 1025.6 1025.6 0.0
01/02:30pm 13.4 11.2 10.7 84 1.4 WSW 13 20 7 11 1025.4 1025.4 0.0
01/02:00pm 13.9 12.1 11.0 83 1.5 W 11 19 6 10 1025.3 1025.3 0.0
01/01:30pm 14.6 11.5 8.9 68 2.9 W 15 19 8 10 1025.3 1025.3 0.0
01/01:00pm 14.7 11.5 8.3 65 3.2 W 15 24 8 13 1025.6 1025.6 0.0
01/12:30pm 15.1 10.9 7.6 61 3.7 W 19 26 10 14 1025.8 1025.8 0.0
01/12:00pm 14.9 11.5 9.0 68 3.0 WNW 17 24 9 13 1025.8 1025.8 0.0
01/11:30am 13.9 10.1 8.9 72 2.5 WNW 19 24 10 13 1026.2 1026.2 0.0
01/11:00am 13.5 12.2 10.0 79 1.8 W 7 11 4 6 1026.3 1026.3 0.0
01/10:30am 12.7 11.5 10.4 86 1.2 W 7 11 4 6 1026.5 1026.5 0.0
01/10:00am 11.9 10.2 9.7 86 1.1 WNW 9 13 5 7 1026.2 1026.2 0.0
01/09:30am 11.4 9.6 9.4 87 1.0 WNW 9 13 5 7 1025.8 1025.8 0.0
01/09:00am 10.8 9.0 9.4 91 0.7 WNW 9 13 5 7 1025.8 1025.8 0.4
01/08:30am 9.8 7.7 8.3 90 0.7 NW 9 13 5 7 1025.3 1025.3 0.4
01/08:00am 9.4 7.3 8.1 92 0.6 NW 9 13 5 7 1025.0 1025.0 0.4
01/07:30am 9.6 7.5 8.1 90 0.7 WNW 9 11 5 6 1024.7 1024.7 0.4
01/07:00am 10.2 8.3 9.0 92 0.6 W 9 15 5 8 1024.3 1024.3 0.4
01/06:30am 9.5 7.0 8.3 92 0.6 WNW 11 15 6 8 1023.9 1023.9 0.4
01/06:00am 9.7 7.3 8.5 92 0.6 WNW 11 15 6 8 1023.5 1023.5 0.4
01/05:30am 8.1 5.7 6.8 91 0.6 NW 9 13 5 7 1023.3 1023.3 0.4
01/05:00am 9.2 7.0 7.9 92 0.6 WNW 9 13 5 7 1022.9 1022.9 0.2
01/04:30am 8.8 6.1 7.3 90 0.7 WNW 11 13 6 7 1022.6 1022.6 0.2
01/04:00am 9.0 6.3 7.3 89 0.8 WNW 11 15 6 8 1022.3 1022.3 0.2
01/03:30am 10.1 7.8 7.6 84 1.2 W 9 11 5 6 1022.2 1022.2 0.2
01/03:00am 9.7 7.9 7.8 88 0.9 WSW 7 13 4 7 1022.2 1022.2 0.2
01/02:30am 9.9 6.1 7.4 84 1.2 WNW 17 26 9 14 1022.0 1022.0 0.2
01/02:00am 7.4 4.0 5.8 90 0.7 NW 13 15 7 8 1022.0 1022.0 0.2
01/01:30am 8.4 6.2 6.4 87 0.9 WNW 7 9 4 5 1021.8 1021.8 0.2
01/01:00am 7.7 4.9 5.2 84 1.1 WNW 9 17 5 9 1021.8 1021.8 0.2
01/12:30am 7.0 3.9 5.6 91 0.6 NW 11 13 6 7 1021.5 1021.5 0.2
01/12:00am 8.5 5.4 5.6 82 1.3 WNW 11 13 6 7 1021.4 1021.4 0.2
 
Date/Time
CST
Temp
°C
App
Temp
°C
Dew
Point
°C
Rel
Hum
%
Delta-T
°C
Wind Press
QNH
hPa
Press
MSL
hPa
Rain since
9am
mm
Dir  Spd
km/h
Gust
km/h
Spd
kts
Gust
kts
30/11:30pm 10.1 7.0 5.5 73 2.1 WSW 11 19 6 10 1021.3 1021.3 0.2
30/11:00pm 10.2 6.7 5.4 72 2.2 WSW 13 24 7 13 1021.0 1021.0 0.2
30/10:30pm 10.3 6.9 5.7 73 2.1 SW 13 17 7 9 1020.9 1020.9 0.2
30/10:00pm 10.4 6.9 5.3 70 2.3 SW 13 19 7 10 1020.6 1020.6 0.2
30/09:30pm 11.0 6.6 4.8 65 2.8 SW 17 24 9 13 1020.4 1020.3 0.2
30/09:00pm 10.9 8.3 6.2 73 2.2 WSW 9 15 5 8 1020.1 1020.0 0.2
30/08:30pm 11.5 6.8 5.2 65 2.9 SW 19 28 10 15 1019.6 1019.6 0.2
30/08:00pm 11.0 6.2 4.5 64 2.9 SW 19 30 10 16 1019.3 1019.3 0.2
30/07:30pm 11.3 6.0 5.2 66 2.8 SW 22 35 12 19 1018.8 1018.8 0.2
30/07:00pm 10.9 5.8 6.2 73 2.2 WSW 22 32 12 17 1018.4 1018.4 0.2
30/06:30pm 11.3 5.3 5.2 66 2.8 WSW 26 35 14 19 1018.0 1018.0 0.2
30/06:00pm 11.0 6.2 4.5 64 2.9 WSW 19 33 10 18 1017.4 1017.4 0.2
30/05:30pm 11.8 5.6 4.2 59 3.4 SW 26 41 14 22 1016.9 1016.9 0.2
30/05:00pm 11.9 7.0 4.1 59 3.5 WSW 19 30 10 16 1016.5 1016.5 0.2
30/04:30pm 12.0 5.7 3.7 57 3.7 SW 26 39 14 21 1016.1 1016.1 0.2
30/04:00pm 12.8 5.9 2.8 50 4.4 WSW 28 44 15 24 1015.6 1015.6 0.2
30/03:30pm 13.5 6.8 3.8 52 4.4 WSW 28 44 15 24 1015.2 1015.2 0.2
30/03:00pm 12.7 7.1 5.4 61 3.4 WSW 24 37 13 20 1014.8 1014.8 0.2
30/02:30pm 12.4 6.5 5.8 64 3.1 WSW 26 37 14 20 1014.5 1014.5 0.2
30/02:15pm 12.9 6.6 5.6 61 3.4 WSW 28 46 15 25 1014.3 1014.3 0.2
30/02:00pm 12.3 6.2 6.6 68 2.7 WSW 28 37 15 20 1014.2 1014.2 0.2
30/01:41pm 12.9 4.8 5.1 59 3.6 WSW 37 61 20 33 1014.1 1014.1 0.0
30/01:30pm 14.3 5.5 3.7 49 4.8 WSW 39 54 21 29 1013.9 1013.9 0.0
30/01:14pm 14.7 7.7 4.3 49 4.8 WSW 30 48 16 26 1013.6 1013.6 0.0
30/01:00pm 14.6 6.7 4.4 50 4.7 WSW 35 50 19 27 1013.6 1013.6 0.0
30/12:46pm 14.1 5.5 4.9 54 4.3 WSW 39 57 21 31 1013.8 1013.8 0.0
30/12:30pm 14.7 5.7 4.6 50 4.7 WSW 41 56 22 30 1013.5 1013.5 0.0
30/12:00pm 13.9 6.1 5.1 55 4.1 WSW 35 50 19 27 1013.5 1013.5 0.0
30/11:30am 14.0 6.3 5.3 55 4.1 WSW 35 48 19 26 1013.4 1013.4 0.0
30/11:00am 14.8 7.8 7.0 59 3.8 W 33 50 18 27 1013.0 1013.0 0.0
30/10:30am 13.6 7.6 8.8 73 2.4 W 30 44 16 24 1013.1 1013.1 0.0
30/10:00am 13.0 6.7 9.7 80 1.7 WSW 33 57 18 31 1013.0 1013.0 0.0
30/09:57am 14.2 8.1 9.7 74 2.3 W 32 57 17 31 1012.8 1012.8 0.0
30/09:30am 12.9 7.9 11.0 88 1.0 W 28 37 15 20 1012.4 1012.4 0.0
30/09:00am 11.8 7.6 9.6 86 1.1 WNW 22 28 12 15 1011.8 1011.8 2.4
30/08:30am 12.2 7.4 10.3 88 1.0 WNW 26 33 14 18 1011.7 1011.7 2.4
30/08:00am 12.5 9.3 11.2 92 0.7 NW 19 24 10 13 1011.3 1011.3 1.6
30/07:30am 12.3 8.1 11.0 92 0.7 NW 24 30 13 16 1010.9 1010.9 1.6
30/07:00am 12.3 8.1 11.2 93 0.6 NW 24 33 13 18 1010.6 1010.6 1.6
30/06:30am 12.7 7.4 11.2 91 0.8 NW 30 41 16 22 1010.2 1010.2 1.4
30/06:00am 12.5 8.4 11.4 93 0.6 NW 24 32 13 17 1010.0 1010.0 1.4
30/05:30am 12.5 7.8 10.8 89 0.9 NNW 26 35 14 19 1009.9 1009.9 1.0
30/05:00am 12.0 7.2 10.3 89 0.9 NNW 26 35 14 19 1010.0 1010.0 0.6
30/04:30am 10.6 7.2 9.2 91 0.7 N 17 20 9 11 1010.1 1010.1 0.6
30/04:00am 10.7 5.5 8.9 89 0.9 NNW 26 33 14 18 1010.1 1010.1 0.6
30/03:30am 11.4 6.2 9.0 85 1.2 NNW 26 33 14 18 1010.4 1010.4 0.6
30/03:00am 11.3 6.6 9.3 87 1.0 NNW 24 33 13 18 1010.7 1010.7 0.6
30/02:30am 11.5 4.7 9.1 85 1.2 NNW 35 43 19 23 1010.9 1010.9 0.6
30/02:00am 11.1 5.2 9.1 87 1.0 NNW 30 37 16 20 1011.4 1011.4 0.6
30/01:30am 11.5 4.9 8.7 83 1.4 NNW 33 46 18 25 1011.1 1011.1 0.2
30/01:00am 12.0 7.0 8.1 77 1.9 NNW 24 32 13 17 1012.1 1012.1 0.0
30/12:30am 12.0 5.9 8.1 77 1.9 NNW 30 41 16 22 1012.6 1012.6 0.0
30/12:00am 11.7 7.4 7.1 73 2.2 N 19 26 10 14 1012.6 1012.6 0.0
 
Date/Time
CST
Temp
°C
App
Temp
°C
Dew
Point
°C
Rel
Hum
%
Delta-T
°C
Wind Press
QNH
hPa
Press
MSL
hPa
Rain since
9am
mm
Dir  Spd
km/h
Gust
km/h
Spd
kts
Gust
kts
29/11:30pm 10.3 6.7 6.9 79 1.6 N 15 24 8 13 1013.0 1013.0 0.0
29/11:00pm 10.3 5.3 6.4 77 1.8 N 22 32 12 17 1012.9 1012.9 0.0
29/10:30pm 10.3 5.6 6.2 76 1.9 N 20 28 11 15 1013.3 1013.3 0.0
29/10:00pm 10.7 5.6 6.0 73 2.2 N 22 35 12 19 1013.5 1013.5 0.0
29/09:30pm 10.8 5.7 5.8 71 2.3 N 22 33 12 18 1013.6 1013.6 0.0
29/09:00pm 11.1 5.9 5.7 69 2.5 N 22 32 12 17 1014.1 1014.1 0.0
29/08:30pm 11.4 5.5 5.8 68 2.6 N 26 39 14 21 1014.5 1014.5 0.0
29/08:00pm 11.6 6.1 5.8 67 2.7 N 24 39 13 21 1014.9 1014.9 0.0
29/07:30pm 12.0 5.7 5.5 64 3.0 N 28 39 15 21 1015.2 1015.2 0.0
29/07:00pm 11.9 6.0 5.7 66 2.9 N 26 41 14 22 1015.1 1015.1 0.0
29/06:30pm 12.0 6.0 5.5 64 3.0 N 26 39 14 21 1015.1 1015.1 0.0
29/06:00pm 12.1 6.6 5.7 65 3.0 N 24 33 13 18 1015.4 1015.4 0.0
29/05:30pm 12.1 6.9 5.7 65 3.0 N 22 35 12 19 1015.5 1015.5 0.0
29/05:00pm 12.3 6.3 5.4 63 3.2 N 26 39 14 21 1015.8 1015.8 0.0
29/04:30pm 13.2 6.8 5.0 57 3.8 N 28 44 15 24 1016.0 1016.0 0.0
29/04:00pm 13.5 5.7 4.8 55 4.0 N 35 48 19 26 1016.0 1016.0 0.0
29/03:34pm 13.8 6.0 4.7 54 4.2 N 35 56 19 30 1016.2 1016.2 0.0
29/03:30pm 13.8 5.2 4.4 53 4.3 N 39 56 21 30 1016.2 1016.2 0.0
29/03:02pm 14.1 5.5 4.6 52 4.4 N 39 57 21 31 1016.4 1016.4 0.0
29/03:00pm 14.0 4.9 4.2 51 4.5 N 41 57 22 31 1016.4 1016.4 0.0
29/02:30pm 14.2 5.9 4.4 51 4.5 N 37 54 20 29 1016.9 1016.9 0.0
29/02:21pm 14.4 7.2 5.0 53 4.4 N 32 50 17 27 1016.9 1016.9 0.0
29/02:00pm 14.5 5.9 4.8 52 4.5 N 39 50 21 27 1017.2 1017.2 0.0
29/01:30pm 13.9 5.0 5.1 55 4.1 N 41 57 22 31 1017.7 1017.7 0.0
29/01:18pm 13.6 6.1 4.7 55 4.1 N 33 52 18 28 1018.1 1018.1 0.0
29/01:00pm 12.9 4.7 4.8 58 3.7 N 37 46 20 25 1018.5 1018.5 0.0
29/12:30pm 12.3 8.0 7.8 74 2.2 N 20 30 11 16 1019.4 1019.4 0.0
29/12:00pm 12.1 7.2 7.1 71 2.4 NNE 22 33 12 18 1020.3 1020.2 0.0
29/11:30am 11.9 7.5 7.6 75 2.1 N 20 30 11 16 1021.3 1021.3 0.0
29/11:00am 11.7 6.8 7.1 73 2.2 N 22 35 12 19 1021.8 1021.8 0.0
29/10:30am 11.7 6.5 7.1 73 2.2 N 24 37 13 20 1022.3 1022.3 0.0
29/10:00am 11.2 6.4 7.2 76 1.9 N 22 35 12 19 1022.7 1022.7 0.0
29/09:30am 10.7 6.2 7.1 78 1.7 N 20 30 11 16 1023.0 1023.0 0.0
29/09:00am 10.7 6.4 7.1 78 1.7 N 19 28 10 15 1023.1 1023.1 0.0
29/08:30am 10.4 6.1 7.0 79 1.6 N 19 24 10 13 1023.2 1023.2 0.0
29/08:00am 9.9 5.5 6.7 80 1.5 N 19 28 10 15 1023.4 1023.4 0.0
29/07:30am 9.8 5.7 6.3 79 1.6 N 17 24 9 13 1023.5 1023.5 0.0
29/07:00am 9.3 5.2 6.0 80 1.5 N 17 22 9 12 1023.5 1023.5 0.0
29/06:30am 9.1 4.8 5.3 77 1.7 N 17 24 9 13 1023.5 1023.5 0.0
29/06:00am 8.8 4.4 4.5 74 1.9 N 17 22 9 12 1023.6 1023.6 0.0
29/05:30am 8.3 4.5 4.1 75 1.8 N 13 20 7 11 1023.6 1023.6 0.0
29/05:00am 8.2 4.6 4.8 79 1.5 N 13 19 7 10 1023.5 1023.5 0.0
29/04:30am 8.2 4.8 6.0 86 1.0 N 13 17 7 9 1023.8 1023.8 0.0
29/04:00am 7.2 3.8 5.9 91 0.6 N 13 17 7 9 1023.7 1023.7 0.0
29/03:30am 5.8 2.1 4.6 92 0.5 N 13 15 7 8 1023.8 1023.8 0.0
29/03:00am 6.0 2.4 4.8 92 0.5 NNW 13 15 7 8 1023.9 1023.9 0.0
29/02:30am 7.3 3.9 6.0 91 0.6 N 13 17 7 9 1024.0 1024.0 0.0
29/02:00am 5.4 2.0 4.2 92 0.5 N 11 13 6 7 1024.2 1024.2 0.0
29/01:30am 8.4 5.5 6.4 87 0.9 N 11 17 6 9 1024.3 1024.3 0.0
29/01:00am 7.1 3.7 5.8 91 0.6 N 13 15 7 8 1024.6 1024.6 0.0
29/12:30am 8.2 4.1 6.2 87 0.9 N 17 19 9 10 1024.8 1024.8 0.0
29/12:00am 7.9 4.0 5.4 84 1.1 N 15 19 8 10 1024.8 1024.8 0.0
 
Date/Time
CST
Temp
°C
App
Temp
°C
Dew
Point
°C
Rel
Hum
%
Delta-T
°C
Wind Press
QNH
hPa
Press
MSL
hPa
Rain since
9am
mm
Dir  Spd
km/h
Gust
km/h
Spd
kts
Gust
kts
28/11:30pm 8.3 5.5 5.1 80 1.4 N 9 13 5 7 1025.3 1025.3 0.0
28/11:00pm 9.9 6.7 5.2 72 2.1 N 11 15 6 8 1025.4 1025.4 0.0
28/10:30pm 10.5 7.0 5.4 70 2.3 N 13 19 7 10 1025.4 1025.4 0.0
28/10:00pm 9.8 6.7 5.6 75 1.9 N 11 17 6 9 1025.4 1025.4 0.0
28/09:30pm 9.3 6.3 6.2 81 1.4 N 11 15 6 8 1025.8 1025.8 0.0

Other Formats:

Comma delimited format used in spreadsheet applications
http://www.bom.gov.au/fwo/IDS60801/IDS60801.94809.axf

JavaScript Object Notation format (JSON) in row-major order
http://www.bom.gov.au/fwo/IDS60801/IDS60801.94809.json